Time;durP1;ratioP1;P1;durP2;ratioP2;P2;SDS_P1;SDS_P2;PMS_P1;PMS_P2;Temp;Humidity;BMP_temperature;BMP_pressure;BME280_temperature;BME280_humidity;BME280_pressure;Samples;Min_cycle;Max_cycle;Signal;HPM_P1;HPM_P2
2023/07/01 00:01:18;;;;;;;;;5.50;4.00;;;;;-143.57;100.00;65101.44;5035691;28;45428;-43
2023/07/01 00:03:43;;;;;;;;;4.00;3.50;;;;;-143.57;100.00;65101.44;5035500;28;45354;-42
2023/07/01 00:06:09;;;;;;;;;3.75;3.75;;;;;-143.57;100.00;65101.44;5035458;28;45349;-42
2023/07/01 00:08:34;;;;;;;;;4.25;2.50;;;;;-143.57;100.00;65101.44;5036018;28;45259;-42
2023/07/01 00:11:00;;;;;;;;;3.25;2.00;;;;;-143.57;100.00;65101.44;5035522;28;45412;-41
2023/07/01 00:13:27;;;;;;;;;3.00;2.25;;;;;-143.57;100.00;65101.44;5035483;28;45480;-41
2023/07/01 00:15:54;;;;;;;;;5.75;2.50;;;;;-143.57;100.00;65101.44;5035401;28;45446;-42
2023/07/01 00:18:19;;;;;;;;;1.50;1.50;;;;;-143.57;100.00;65101.44;5035358;28;45364;-42
2023/07/01 00:20:45;;;;;;;;;2.25;2.25;;;;;-143.57;100.00;65101.44;5035165;28;47155;-43
2023/07/01 00:23:10;;;;;;;;;4.25;3.00;;;;;-143.57;100.00;65101.44;5034533;28;48151;-42
2023/07/01 00:25:35;;;;;;;;;3.00;3.00;;;;;-143.57;100.00;65101.44;5035106;28;45319;-44
2023/07/01 00:28:01;;;;;;;;;3.00;3.00;;;;;-143.57;100.00;65101.44;5035599;28;45230;-42
2023/07/01 00:30:26;;;;;;;;;1.75;1.75;;;;;-143.57;100.00;65101.44;5034983;28;46332;-42
2023/07/01 00:32:51;;;;;;;;;5.25;2.25;;;;;-143.57;100.00;65101.44;5017234;28;45385;-44
2023/07/01 00:35:16;;;;;;;;;2.25;2.00;;;;;-143.57;100.00;65101.44;5035172;28;45381;-43
2023/07/01 00:37:42;;;;;;;;;4.00;2.00;;;;;-143.57;100.00;65101.44;5035364;28;45344;-42
2023/07/01 00:40:09;;;;;;;;;3.00;3.00;;;;;-143.57;100.00;65101.44;5034713;28;46663;-43
2023/07/01 00:42:34;;;;;;;;;5.25;4.50;;;;;-143.57;100.00;65101.44;5034675;28;45771;-43
2023/07/01 00:44:59;;;;;;;;;4.75;3.50;;;;;-143.57;100.00;65101.44;5038455;28;45455;-44
2023/07/01 00:47:25;;;;;;;;;5.00;5.00;;;;;-143.57;100.00;65101.44;5038594;28;45306;-41
2023/07/01 00:49:51;;;;;;;;;4.00;3.25;;;;;-143.57;100.00;65101.44;5038233;28;46999;-43
2023/07/01 00:52:17;;;;;;;;;5.75;5.75;;;;;-143.57;100.00;65101.44;5038338;28;45423;-42
2023/07/01 00:54:42;;;;;;;;;4.50;2.00;;;;;-143.57;100.00;65101.44;5038276;28;45407;-45
2023/07/01 00:57:08;;;;;;;;;2.00;2.00;;;;;-143.57;100.00;65101.44;5038562;28;45393;-44
2023/07/01 00:59:33;;;;;;;;;4.00;2.00;;;;;-143.57;100.00;65101.44;5038298;28;47548;-42
2023/07/01 01:02:10;;;;;;;;;4.50;3.00;;;;;-143.57;100.00;65101.44;5038223;28;45318;-43
2023/07/01 01:04:44;;;;;;;;;3.25;3.25;;;;;-143.57;100.00;65101.44;5038560;28;45331;-42
2023/07/01 01:07:23;;;;;;;;;4.00;4.00;;;;;-143.57;100.00;65101.44;5038338;28;45259;-41
2023/07/01 01:09:52;;;;;;;;;3.00;3.00;;;;;-143.57;100.00;65101.44;5037890;28;46354;-43
2023/07/01 01:12:20;;;;;;;;;4.00;2.75;;;;;-143.57;100.00;65101.44;5037906;28;45349;-44
2023/07/01 01:14:48;;;;;;;;;2.25;2.25;;;;;-143.57;100.00;65101.44;5038019;28;45217;-43
2023/07/01 01:17:16;;;;;;;;;3.75;3.50;;;;;-143.57;100.00;65101.44;5038274;28;45412;-42
2023/07/01 01:20:12;;;;;;;;;2.00;2.00;;;;;-143.57;100.00;65101.44;5037998;28;46489;-41
2023/07/01 01:22:42;;;;;;;;;2.00;2.00;;;;;-143.57;100.00;65101.44;5037584;28;45389;-42
2023/07/01 01:25:10;;;;;;;;;2.50;2.00;;;;;-143.57;100.00;65101.44;5037917;28;45434;-44
2023/07/01 01:27:40;;;;;;;;;2.50;2.00;;;;;-143.57;100.00;65101.44;5037861;28;45462;-43
2023/07/01 01:30:09;;;;;;;;;7.25;2.25;;;;;-143.57;100.00;65101.44;5037555;28;46351;-44
2023/07/01 01:32:34;;;;;;;;;3.00;3.00;;;;;-143.57;100.00;65101.44;5037707;28;45280;-43
2023/07/01 01:35:00;;;;;;;;;4.25;3.25;;;;;-143.57;100.00;65101.44;5037757;28;45528;-44
2023/07/01 01:37:49;;;;;;;;;4.00;3.00;;;;;-143.57;100.00;65101.44;5038046;28;45336;-44
2023/07/01 01:40:24;;;;;;;;;1.75;1.75;;;;;-143.57;100.00;65101.44;5037538;28;46478;-45
2023/07/01 01:42:55;;;;;;;;;1.50;1.50;;;;;-143.57;100.00;65101.44;5037619;28;45419;-43
2023/07/01 01:45:21;;;;;;;;;4.00;4.00;;;;;-143.57;100.00;65101.44;5037589;28;45192;-43
2023/07/01 01:47:49;;;;;;;;;2.25;2.25;;;;;-143.57;100.00;65101.44;5037818;28;45373;-46
2023/07/01 01:50:17;;;;;;;;;3.50;3.00;;;;;-143.57;100.00;65101.44;5019486;28;47034;-47
2023/07/01 01:52:43;;;;;;;;;3.00;2.25;;;;;-143.57;100.00;65101.44;5037426;28;45415;-47
2023/07/01 01:55:12;;;;;;;;;2.00;2.00;;;;;-143.57;100.00;65101.44;5036918;28;45290;-46
2023/07/01 01:57:38;;;;;;;;;6.00;4.00;;;;;-143.57;100.00;65101.44;5037590;28;45373;-46
2023/07/01 02:00:08;;;;;;;;;4.50;2.00;;;;;-143.57;100.00;65101.44;5037227;28;47255;-47
2023/07/01 02:02:35;;;;;;;;;5.00;3.00;;;;;-143.57;100.00;65101.44;5037347;28;45270;-46
2023/07/01 02:05:00;;;;;;;;;2.75;2.00;;;;;-143.57;100.00;65101.44;5037271;28;45478;-41
2023/07/01 02:07:26;;;;;;;;;4.75;3.50;;;;;-143.57;100.00;65101.44;5037394;28;45391;-47
2023/07/01 02:09:52;;;;;;;;;5.00;3.00;;;;;-143.57;100.00;65101.44;5036922;28;46201;-43
2023/07/01 02:12:18;;;;;;;;;3.25;2.00;;;;;-143.57;100.00;65101.44;5037040;28;45457;-42
2023/07/01 02:14:43;;;;;;;;;3.00;3.00;;;;;-143.57;100.00;65101.44;5036905;28;45346;-48
2023/07/01 02:17:08;;;;;;;;;2.75;2.50;;;;;-143.57;100.00;65101.44;5037171;28;45460;-44
2023/07/01 02:19:33;;;;;;;;;3.00;2.50;;;;;-143.57;100.00;65101.44;5036225;28;45393;-46
2023/07/01 02:21:59;;;;;;;;;4.25;3.50;;;;;-143.57;100.00;65101.44;5037232;28;45434;-47
2023/07/01 02:24:24;;;;;;;;;3.50;3.50;;;;;-143.57;100.00;65101.44;5036957;28;45414;-46
2023/07/01 02:26:50;;;;;;;;;4.00;3.75;;;;;-143.57;100.00;65101.44;5037539;28;45428;-47
2023/07/01 02:29:15;;;;;;;;;3.75;3.75;;;;;-143.57;100.00;65101.44;5036551;28;46235;-45
2023/07/01 02:31:41;;;;;;;;;5.00;4.00;;;;;-143.57;100.00;65101.44;5036826;28;45402;-45
2023/07/01 02:34:06;;;;;;;;;4.75;4.00;;;;;-143.57;100.00;65101.44;5036993;28;45331;-46
2023/07/01 02:36:31;;;;;;;;;2.00;1.00;;;;;-143.57;100.00;65101.44;5037163;28;45160;-44
2023/07/01 02:38:57;;;;;;;;;4.75;3.00;;;;;-143.57;100.00;65101.44;5035593;28;46312;-47
2023/07/01 02:41:22;;;;;;;;;2.00;2.00;;;;;-143.57;100.00;65101.44;5036860;28;45337;-48
2023/07/01 02:43:47;;;;;;;;;4.00;3.33;;;;;-143.57;100.00;65101.44;5036688;28;45337;-46
2023/07/01 02:46:13;;;;;;;;;5.50;4.25;;;;;-143.57;100.00;65101.44;5036708;28;45434;-48
2023/07/01 02:48:38;;;;;;;;;4.00;3.67;;;;;-143.57;100.00;65101.44;5036500;28;45453;-46
2023/07/01 02:51:05;;;;;;;;;5.00;3.75;;;;;-143.57;100.00;65101.44;5036657;28;45204;-42
2023/07/01 02:53:30;;;;;;;;;3.25;3.00;;;;;-143.57;100.00;65101.44;5036685;28;45343;-43
2023/07/01 02:55:56;;;;;;;;;2.00;2.00;;;;;-143.57;100.00;65101.44;5036566;28;45433;-41
2023/07/01 02:58:22;;;;;;;;;5.25;4.50;;;;;-143.57;100.00;65101.44;5035380;28;46283;-43
2023/07/01 03:00:47;;;;;;;;;2.00;2.00;;;;;-143.57;100.00;65101.44;5036076;28;45364;-42
2023/07/01 03:03:12;;;;;;;;;7.00;4.75;;;;;-143.57;100.00;65101.44;5036374;28;45589;-42
2023/07/01 03:05:39;;;;;;;;;5.50;4.00;;;;;-143.57;100.00;65101.44;5036426;28;45501;-48
2023/07/01 03:08:05;;;;;;;;;4.75;3.75;;;;;-143.57;100.00;65101.44;5036332;28;45271;-43
2023/07/01 03:10:31;;;;;;;;;3.00;3.00;;;;;-143.57;100.00;65101.44;5036370;28;45276;-44
2023/07/01 03:12:57;;;;;;;;;7.75;5.00;;;;;-143.57;100.00;65101.44;5036167;28;45316;-42
2023/07/01 03:15:22;;;;;;;;;3.00;3.00;;;;;-143.57;100.00;65101.44;5036141;28;45396;-45
2023/07/01 03:17:48;;;;;;;;;5.00;4.00;;;;;-143.57;100.00;65101.44;5035864;28;47181;-47
2023/07/01 03:20:22;;;;;;;;;3.00;2.75;;;;;-143.57;100.00;65101.44;5036012;28;45420;-44
2023/07/01 03:22:52;;;;;;;;;3.75;2.75;;;;;-143.57;100.00;65101.44;5036271;28;45597;-45
2023/07/01 03:25:18;;;;;;;;;4.00;3.00;;;;;-143.57;100.00;65101.44;5036047;28;45548;-47
2023/07/01 03:27:44;;;;;;;;;2.75;2.00;;;;;-143.57;100.00;65101.44;5035733;28;46128;-45
2023/07/01 03:30:13;;;;;;;;;2.25;2.00;;;;;-143.57;100.00;65101.44;5035751;28;45382;-45
2023/07/01 03:32:48;;;;;;;;;1.75;1.75;;;;;-143.57;100.00;65101.44;5035771;28;45377;-45
2023/07/01 03:35:15;;;;;;;;;2.25;2.25;;;;;-143.57;100.00;65101.44;5036123;28;45270;-45
2023/07/01 03:37:42;;;;;;;;;2.00;2.00;;;;;-143.57;100.00;65101.44;5035811;28;46291;-46
2023/07/01 03:40:12;;;;;;;;;1.00;1.00;;;;;-143.57;100.00;65101.44;5035778;28;45368;-46
2023/07/01 03:42:41;;;;;;;;;3.00;3.00;;;;;-143.57;100.00;65101.44;5035918;28;45343;-42
2023/07/01 03:45:08;;;;;;;;;2.00;2.00;;;;;-143.57;100.00;65101.44;5017950;28;45414;-45
2023/07/01 03:47:39;;;;;;;;;4.00;3.00;;;;;-143.57;100.00;65101.44;5035774;28;46066;-48
2023/07/01 03:50:08;;;;;;;;;2.00;2.00;;;;;-143.57;100.00;65101.44;5035859;28;45357;-43
2023/07/01 03:52:36;;;;;;;;;1.75;1.75;;;;;-143.57;100.00;65101.44;5035179;28;45406;-42
2023/07/01 03:55:02;;;;;;;;;2.00;2.00;;;;;-143.57;100.00;65101.44;5035996;28;45412;-46
2023/07/01 03:57:27;;;;;;;;;3.00;3.00;;;;;-143.57;100.00;65101.44;5035410;28;46354;-47
2023/07/01 03:59:53;;;;;;;;;2.00;2.00;;;;;-143.57;100.00;65101.44;5035536;28;45357;-43
2023/07/01 04:02:18;;;;;;;;;1.75;1.75;;;;;-143.57;100.00;65101.44;5035672;28;45516;-46
2023/07/01 04:04:43;;;;;;;;;1.75;1.75;;;;;-143.57;100.00;65101.44;5035920;28;45373;-46
2023/07/01 04:07:09;;;;;;;;;1.50;1.00;;;;;-143.57;100.00;65101.44;5035166;28;45309;-43
2023/07/01 04:09:34;;;;;;;;;1.50;1.50;;;;;-143.57;100.00;65101.44;5035124;28;46158;-42
2023/07/01 04:11:59;;;;;;;;;1.75;1.75;;;;;-143.57;100.00;65101.44;5034914;28;47489;-41
2023/07/01 04:14:25;;;;;;;;;1.75;1.75;;;;;-143.57;100.00;65101.44;5035092;28;45257;-42
2023/07/01 04:16:50;;;;;;;;;1.75;1.75;;;;;-143.57;100.00;65101.44;5035134;28;46141;-43
2023/07/01 04:19:16;;;;;;;;;3.75;1.00;;;;;-143.57;100.00;65101.44;5037479;28;45220;-43
2023/07/01 04:21:41;;;;;;;;;3.00;2.25;;;;;-143.57;100.00;65101.44;5039021;28;45347;-48
2023/07/01 04:24:07;;;;;;;;;2.00;2.00;;;;;-143.57;100.00;65101.44;5039027;28;45470;-43
2023/07/01 04:26:36;;;;;;;;;2.25;2.25;;;;;-143.57;100.00;65101.44;5038650;28;45420;-44
2023/07/01 04:29:02;;;;;;;;;1.75;0.75;;;;;-143.57;100.00;65101.44;5038810;28;45342;-47
2023/07/01 04:31:28;;;;;;;;;3.00;3.00;;;;;-143.57;100.00;65101.44;5038596;28;45244;-44
2023/07/01 04:33:54;;;;;;;;;1.25;1.25;;;;;-143.57;100.00;65101.44;5038968;28;45276;-43
2023/07/01 04:36:20;;;;;;;;;5.00;1.75;;;;;-143.57;100.00;65101.44;5038357;28;45247;-46
2023/07/01 04:38:45;;;;;;;;;1.00;1.00;;;;;-143.57;100.00;65101.44;5038426;28;45359;-49
2023/07/01 04:41:10;;;;;;;;;2.00;2.00;;;;;-143.57;100.00;65101.44;5038533;28;45405;-47
2023/07/01 04:43:36;;;;;;;;;2.50;2.00;;;;;-143.57;100.00;65101.44;5038711;28;45365;-44
2023/07/01 04:46:01;;;;;;;;;1.00;1.00;;;;;-143.57;100.00;65101.44;5037862;28;45420;-46
2023/07/01 04:48:26;;;;;;;;;2.75;1.00;;;;;-143.57;100.00;65101.44;5037469;28;45477;-44
2023/07/01 04:50:52;;;;;;;;;6.00;3.25;;;;;-143.57;100.00;65101.44;5038353;28;45336;-42
2023/07/01 04:53:18;;;;;;;;;1.75;1.00;;;;;-143.57;100.00;65101.44;5038529;28;45423;-42
2023/07/01 04:55:43;;;;;;;;;1.00;1.00;;;;;-143.57;100.00;65101.44;5037976;28;51883;-42
2023/07/01 04:58:09;;;;;;;;;1.00;1.00;;;;;-143.57;100.00;65101.44;5038316;28;45372;-45
2023/07/01 05:00:34;;;;;;;;;1.00;1.00;;;;;-143.57;100.00;65101.44;5038157;28;45453;-43
2023/07/01 05:02:59;;;;;;;;;1.50;1.25;;;;;-143.57;100.00;65101.44;5038225;28;45513;-42
2023/07/01 05:05:25;;;;;;;;;1.75;0.00;;;;;-143.57;100.00;65101.44;5038019;28;45373;-42
2023/07/01 05:07:51;;;;;;;;;1.00;1.00;;;;;-143.57;100.00;65101.44;5038057;28;45481;-46
2023/07/01 05:10:16;;;;;;;;;1.75;1.00;;;;;-143.57;100.00;65101.44;5038201;28;45387;-46
2023/07/01 05:12:41;;;;;;;;;1.75;0.50;;;;;-143.57;100.00;65101.44;5037486;28;45516;-45
2023/07/01 05:15:07;;;;;;;;;1.50;1.00;;;;;-143.57;100.00;65101.44;5037399;28;49363;-46
2023/07/01 05:17:33;;;;;;;;;1.00;1.00;;;;;-143.57;100.00;65101.44;5037878;28;45810;-44
2023/07/01 05:19:58;;;;;;;;;1.00;1.00;;;;;-143.57;100.00;65101.44;5037970;28;45923;-43
2023/07/01 05:22:23;;;;;;;;;1.25;1.00;;;;;-143.57;100.00;65101.44;5038230;28;45397;-45
2023/07/01 05:24:49;;;;;;;;;3.75;1.00;;;;;-143.57;100.00;65101.44;5037050;28;45306;-45
2023/07/01 05:27:14;;;;;;;;;2.00;1.00;;;;;-143.57;100.00;65101.44;5037193;28;45372;-44
2023/07/01 05:29:39;;;;;;;;;2.00;0.75;;;;;-143.57;100.00;65101.44;5036866;28;45342;-46
2023/07/01 05:32:05;;;;;;;;;1.75;1.00;;;;;-143.57;100.00;65101.44;5037919;28;45214;-44
2023/07/01 05:34:31;;;;;;;;;1.00;1.00;;;;;-143.57;100.00;65101.44;5037736;28;46296;-47
2023/07/01 05:36:56;;;;;;;;;3.00;1.00;;;;;-143.57;100.00;65101.44;5037890;28;45347;-48
2023/07/01 05:39:21;;;;;;;;;1.00;1.00;;;;;-143.57;100.00;65101.44;5037598;28;45414;-47
2023/07/01 05:41:47;;;;;;;;;1.50;1.50;;;;;-143.57;100.00;65101.44;5038099;28;45400;-45
2023/07/01 05:44:12;;;;;;;;;2.00;1.00;;;;;-143.57;100.00;65101.44;5037577;28;45939;-41
2023/07/01 05:46:40;;;;;;;;;3.00;1.00;;;;;-143.57;100.00;65101.44;5037418;28;45322;-44
2023/07/01 05:49:05;;;;;;;;;1.25;1.00;;;;;-143.57;100.00;65101.44;5037691;28;45374;-45
2023/07/01 05:51:31;;;;;;;;;1.00;1.00;;;;;-143.57;100.00;65101.44;5037725;28;45510;-43
2023/07/01 05:53:56;;;;;;;;;0.00;0.00;;;;;-143.57;100.00;65101.44;5037182;28;45910;-41
2023/07/01 05:56:21;;;;;;;;;0.50;0.50;;;;;-143.57;100.00;65101.44;5037451;28;45600;-41
2023/07/01 05:58:47;;;;;;;;;0.50;0.25;;;;;-143.57;100.00;65101.44;5037503;28;45318;-41
2023/07/01 06:01:12;;;;;;;;;1.00;1.00;;;;;-143.57;100.00;65101.44;5037558;28;45224;-46
2023/07/01 06:03:37;;;;;;;;;0.25;0.25;;;;;-143.57;100.00;65101.44;5037185;28;45520;-41
2023/07/01 06:06:03;;;;;;;;;0.00;0.00;;;;;-143.57;100.00;65101.44;5037384;28;45387;-42
2023/07/01 06:08:28;;;;;;;;;0.00;0.00;;;;;-143.57;100.00;65101.44;5037467;28;45614;-43
2023/07/01 06:10:53;;;;;;;;;0.25;0.25;;;;;-143.57;100.00;65101.44;5037626;28;45433;-42
2023/07/01 06:13:19;;;;;;;;;2.00;0.00;;;;;-143.57;100.00;65101.44;5037099;28;46397;-41
2023/07/01 06:15:45;;;;;;;;;1.00;0.75;;;;;-143.57;100.00;65101.44;5036712;28;45434;-46
2023/07/01 06:18:10;;;;;;;;;1.00;0.75;;;;;-143.57;100.00;65101.44;5037343;28;45202;-42
2023/07/01 06:20:35;;;;;;;;;0.75;0.75;;;;;-143.57;100.00;65101.44;5037536;28;45334;-46
2023/07/01 06:23:01;;;;;;;;;0.00;0.00;;;;;-143.57;100.00;65101.44;5037138;28;47252;-43
2023/07/01 06:25:26;;;;;;;;;0.00;0.00;;;;;-143.57;100.00;65101.44;5037010;28;46963;-46
2023/07/01 06:27:51;;;;;;;;;1.00;1.00;;;;;-143.57;100.00;65101.44;5037275;28;45394;-41
2023/07/01 06:30:17;;;;;;;;;0.00;0.00;;;;;-143.57;100.00;65101.44;5037242;28;45460;-42
2023/07/01 06:32:42;;;;;;;;;0.00;0.00;;;;;-143.57;100.00;65101.44;5036621;28;47026;-45
2023/07/01 06:35:08;;;;;;;;;0.25;0.25;;;;;-143.57;100.00;65101.44;5036884;28;45429;-46
2023/07/01 06:37:33;;;;;;;;;1.25;1.25;;;;;-143.57;100.00;65101.44;5037110;28;45338;-41
2023/07/01 06:39:58;;;;;;;;;2.00;0.50;;;;;-143.57;100.00;65101.44;5037040;28;45529;-45
2023/07/01 06:42:24;;;;;;;;;1.00;1.00;;;;;-143.57;100.00;65101.44;5036241;28;48284;-42
2023/07/01 06:44:49;;;;;;;;;1.00;1.00;;;;;-143.57;100.00;65101.44;5026318;28;45488;-44
2023/07/01 06:47:14;;;;;;;;;0.00;0.00;;;;;-143.57;100.00;65101.44;5029588;28;45533;-41
2023/07/01 06:49:39;;;;;;;;;3.00;1.00;;;;;-143.57;100.00;65101.44;5036598;28;45442;-46
2023/07/01 06:52:05;;;;;;;;;2.75;2.75;;;;;-143.57;100.00;65101.44;5036361;28;48715;-43
2023/07/01 06:54:30;;;;;;;;;2.00;1.00;;;;;-143.57;100.00;65101.44;5036423;28;45417;-40
2023/07/01 06:56:56;;;;;;;;;4.25;4.25;;;;;-143.57;100.00;65101.44;5036343;28;45426;-41
2023/07/01 06:59:22;;;;;;;;;2.00;0.00;;;;;-143.57;100.00;65101.44;5036662;28;45365;-41
2023/07/01 07:01:47;;;;;;;;;2.00;2.00;;;;;-143.57;100.00;65101.44;5036421;28;47091;-41
2023/07/01 07:04:12;;;;;;;;;0.00;0.00;;;;;-143.57;100.00;65101.44;5036627;28;45338;-42
2023/07/01 07:06:38;;;;;;;;;1.00;1.00;;;;;-143.57;100.00;65101.44;5036570;28;45547;-46
2023/07/01 07:09:03;;;;;;;;;0.00;0.00;;;;;-143.57;100.00;65101.44;5036775;28;45365;-45
2023/07/01 07:11:29;;;;;;;;;0.00;0.00;;;;;-143.57;100.00;65101.44;5035572;28;45417;-43
2023/07/01 07:13:54;;;;;;;;;2.00;2.00;;;;;-143.57;100.00;65101.44;5036143;28;45263;-44
2023/07/01 07:16:20;;;;;;;;;1.00;0.00;;;;;-143.57;100.00;65101.44;5036026;28;45389;-44
2023/07/01 07:18:45;;;;;;;;;2.00;2.00;;;;;-143.57;100.00;65101.44;5036526;28;45459;-43
2023/07/01 07:21:10;;;;;;;;;1.50;1.00;;;;;-143.57;100.00;65101.44;5035898;28;46057;-44
2023/07/01 07:23:36;;;;;;;;;2.50;1.00;;;;;-143.57;100.00;65101.44;5036347;28;45548;-46
2023/07/01 07:26:01;;;;;;;;;2.00;1.00;;;;;-143.57;100.00;65101.44;5035894;28;45228;-43
2023/07/01 07:28:26;;;;;;;;;2.00;1.00;;;;;-143.57;100.00;65101.44;5036461;28;45349;-47
2023/07/01 07:30:52;;;;;;;;;3.00;1.50;;;;;-143.57;100.00;65101.44;5036101;28;48412;-42
2023/07/01 07:33:17;;;;;;;;;4.00;2.25;;;;;-143.57;100.00;65101.44;5035838;28;45321;-43
2023/07/01 07:35:42;;;;;;;;;1.25;1.00;;;;;-143.57;100.00;65101.44;5036294;28;45522;-46
2023/07/01 07:38:08;;;;;;;;;0.00;0.00;;;;;-143.57;100.00;65101.44;5036434;28;45346;-46
2023/07/01 07:40:33;;;;;;;;;1.00;1.00;;;;;-143.57;100.00;65101.44;5036157;28;45390;-45
2023/07/01 07:42:58;;;;;;;;;1.00;1.00;;;;;-143.57;100.00;65101.44;5035483;28;52749;-47
2023/07/01 07:45:24;;;;;;;;;4.00;2.50;;;;;-143.57;100.00;65101.44;5036013;28;45239;-46
2023/07/01 07:47:49;;;;;;;;;2.25;1.00;;;;;-143.57;100.00;65101.44;5035955;28;45490;-42
2023/07/01 07:50:15;;;;;;;;;2.00;2.00;;;;;-143.57;100.00;65101.44;5035677;28;45375;-49
2023/07/01 07:52:41;;;;;;;;;11.50;10.50;;;;;-143.57;100.00;65101.44;5034941;28;45389;-44
2023/07/01 07:55:08;;;;;;;;;9.50;9.00;;;;;-143.57;100.00;65101.44;5035988;28;45447;-48
2023/07/01 07:57:33;;;;;;;;;1.80;1.80;;;;;-143.57;100.00;65101.44;5018222;28;45350;-45
2023/07/01 07:59:59;;;;;;;;;1.50;1.00;;;;;-143.57;100.00;65101.44;5035689;28;45718;-43
2023/07/01 08:02:24;;;;;;;;;1.20;1.00;;;;;-143.57;100.00;65101.44;5035578;28;45574;-43
2023/07/01 08:04:50;;;;;;;;;0.50;0.50;;;;;-143.57;100.00;65101.44;5035666;28;45299;-44
2023/07/01 08:07:15;;;;;;;;;2.00;0.00;;;;;-143.57;100.00;65101.44;5035685;28;45243;-42
2023/07/01 08:09:41;;;;;;;;;1.00;0.00;;;;;-143.57;100.00;65101.44;5035362;28;46061;-41
2023/07/01 08:12:07;;;;;;;;;0.50;0.50;;;;;-143.57;100.00;65101.44;5035380;28;49474;-43
2023/07/01 08:14:32;;;;;;;;;0.60;0.60;;;;;-143.57;100.00;65101.44;5035436;28;45383;-43
2023/07/01 08:17:00;;;;;;;;;0.75;0.25;;;;;-143.57;100.00;65101.44;5035418;28;45474;-47
2023/07/01 08:19:26;;;;;;;;;2.40;0.60;;;;;-143.57;100.00;65101.44;5035313;28;45851;-41
2023/07/01 08:21:51;;;;;;;;;0.25;0.25;;;;;-143.57;100.00;65101.44;5035332;28;45437;-42
2023/07/01 08:24:17;;;;;;;;;0.00;0.00;;;;;-143.57;100.00;65101.44;5035672;28;45409;-42
2023/07/01 08:26:43;;;;;;;;;1.00;1.00;;;;;-143.57;100.00;65101.44;5035578;28;45472;-45
2023/07/01 08:29:10;;;;;;;;;1.75;1.00;;;;;-143.57;100.00;65101.44;5035248;28;47181;-44
2023/07/01 08:31:36;;;;;;;;;1.20;1.20;;;;;-143.57;100.00;65101.44;5035241;28;45393;-41
2023/07/01 08:34:02;;;;;;;;;0.80;0.80;;;;;-143.57;100.00;65101.44;5035228;28;45184;-42
2023/07/01 08:36:28;;;;;;;;;2.20;0.40;;;;;-143.57;100.00;65101.44;5035391;28;45445;-42
2023/07/01 08:38:53;;;;;;;;;2.00;2.00;;;;;-143.57;100.00;65101.44;5034987;28;45428;-43
2023/07/01 08:41:22;;;;;;;;;0.50;0.50;;;;;-143.57;100.00;65101.44;5034971;28;45557;-43
2023/07/01 08:43:51;;;;;;;;;3.00;1.00;;;;;-143.57;100.00;65101.44;5035112;28;45434;-42
2023/07/01 08:46:18;;;;;;;;;0.40;0.40;;;;;-143.57;100.00;65101.44;5035233;28;45389;-43
2023/07/01 08:48:45;;;;;;;;;0.80;0.00;;;;;-143.57;100.00;65101.44;5034795;28;46091;-44
2023/07/01 08:51:26;;;;;;;;;4.00;3.00;;;;;-143.57;100.00;65101.44;5034923;28;45310;-42
2023/07/01 08:53:52;;;;;;;;;2.20;2.20;;;;;-143.57;100.00;65101.44;5035081;28;45406;-43
2023/07/01 08:56:21;;;;;;;;;1.40;1.00;;;;;-143.57;100.00;65101.44;5035316;28;45454;-42
2023/07/01 08:58:47;;;;;;;;;0.80;0.40;;;;;-143.57;100.00;65101.44;5034881;28;46517;-45
2023/07/01 09:01:14;;;;;;;;;0.40;0.40;;;;;-143.57;100.00;65101.44;5035022;28;45192;-42
2023/07/01 09:03:41;;;;;;;;;0.00;0.00;;;;;-143.57;100.00;65101.44;5035082;28;45371;-44
2023/07/01 09:06:07;;;;;;;;;1.20;0.00;;;;;-143.57;100.00;65101.44;5029339;28;45545;-44
2023/07/01 09:08:38;;;;;;;;;0.60;0.60;;;;;-143.57;100.00;65101.44;5037730;28;47421;-45
2023/07/01 09:11:03;;;;;;;;;0.40;0.40;;;;;-143.57;100.00;65101.44;5038353;28;45444;-43
2023/07/01 09:13:29;;;;;;;;;0.75;0.25;;;;;-143.57;100.00;65101.44;5037724;28;45266;-44
2023/07/01 09:15:55;;;;;;;;;0.25;0.25;;;;;-143.57;100.00;65101.44;5038100;28;45240;-46
2023/07/01 09:18:22;;;;;;;;;0.00;0.00;;;;;-143.57;100.00;65101.44;5038026;28;47307;-47
2023/07/01 09:20:49;;;;;;;;;0.00;0.00;;;;;-143.57;100.00;65101.44;5037591;28;45508;-43
2023/07/01 09:23:35;;;;;;;;;0.00;0.00;;;;;-143.57;100.00;65101.44;5038005;28;45312;-41
2023/07/01 09:26:06;;;;;;;;;1.00;0.00;;;;;-143.57;100.00;65101.44;5038408;28;45460;-42
2023/07/01 09:28:33;;;;;;;;;0.00;0.00;;;;;-143.57;100.00;65101.44;5037832;28;46286;-42
2023/07/01 09:31:00;;;;;;;;;0.00;0.00;;;;;-143.57;100.00;65101.44;5018612;28;45488;-42
2023/07/01 09:33:26;;;;;;;;;1.00;0.00;;;;;-143.57;100.00;65101.44;5037088;28;45385;-41
2023/07/01 09:35:57;;;;;;;;;0.00;0.00;;;;;-143.57;100.00;65101.44;5037946;28;45827;-42
2023/07/01 09:38:25;;;;;;;;;0.60;0.00;;;;;-143.57;100.00;65101.44;5037493;28;45483;-41
2023/07/01 09:40:51;;;;;;;;;0.00;0.00;;;;;-143.57;100.00;65101.44;5037628;28;45512;-43
2023/07/01 09:43:18;;;;;;;;;0.75;0.25;;;;;-143.57;100.00;65101.44;5037628;28;45830;-44
2023/07/01 09:45:55;;;;;;;;;0.00;0.00;;;;;-143.57;100.00;65101.44;5037670;28;45377;-44
2023/07/01 09:48:21;;;;;;;;;1.00;1.00;;;;;-143.57;100.00;65101.44;5037462;28;45468;-42
2023/07/01 09:50:48;;;;;;;;;0.00;0.00;;;;;-143.57;100.00;65101.44;5037367;28;45236;-45
2023/07/01 09:53:26;;;;;;;;;0.40;0.40;;;;;-143.57;100.00;65101.44;5037356;28;45388;-43
2023/07/01 09:55:52;;;;;;;;;1.00;1.00;;;;;-143.57;100.00;65101.44;5037566;28;45417;-41
2023/07/01 09:58:17;;;;;;;;;1.25;1.25;;;;;-143.57;100.00;65101.44;5037171;28;46779;-45
2023/07/01 10:00:44;;;;;;;;;0.00;0.00;;;;;-143.57;100.00;65101.44;5037255;28;45248;-44
2023/07/01 10:03:10;;;;;;;;;1.20;1.00;;;;;-143.57;100.00;65101.44;5029469;28;45303;-41
2023/07/01 10:05:36;;;;;;;;;3.50;2.50;;;;;-143.57;100.00;65101.44;5037129;28;45311;-40
2023/07/01 10:08:02;;;;;;;;;1.60;0.80;;;;;-143.57;100.00;65101.44;5018284;28;45345;-43
2023/07/01 10:10:27;;;;;;;;;1.00;1.00;;;;;-143.57;100.00;65101.44;5036779;28;45276;-40
2023/07/01 10:12:56;;;;;;;;;2.50;1.00;;;;;-143.57;100.00;65101.44;5037293;28;46123;-43
2023/07/01 10:15:32;;;;;;;;;0.20;0.20;;;;;-143.57;100.00;65101.44;5036669;28;45554;-43
2023/07/01 10:17:58;;;;;;;;;0.20;0.20;;;;;-143.57;100.00;65101.44;5036353;28;45357;-41
2023/07/01 10:20:23;;;;;;;;;1.50;1.50;;;;;-143.57;100.00;65101.44;5036376;28;45337;-44
2023/07/01 10:22:57;;;;;;;;;0.25;0.25;;;;;-143.57;100.00;65101.44;5036628;28;45480;-44
2023/07/01 10:25:36;;;;;;;;;0.00;0.00;;;;;-143.57;100.00;65101.44;5036950;28;45508;-44
2023/07/01 10:28:01;;;;;;;;;1.20;1.20;;;;;-143.57;100.00;65101.44;5036704;28;45373;-44
2023/07/01 10:30:46;;;;;;;;;5.25;1.25;;;;;-143.57;100.00;65101.44;5036408;28;45377;-46
2023/07/01 10:33:30;;;;;;;;;3.40;2.80;;;;;-143.57;100.00;65101.44;5027649;28;45541;-45
2023/07/01 10:36:06;;;;;;;;;1.60;1.60;;;;;-143.57;100.00;65101.44;5036176;28;45291;-43
2023/07/01 10:38:33;;;;;;;;;1.00;0.20;;;;;-143.57;100.00;65101.44;5036592;28;45489;-44
2023/07/01 10:40:59;;;;;;;;;1.00;1.00;;;;;-143.57;100.00;65101.44;5036381;28;45369;-44
2023/07/01 10:43:32;;;;;;;;;2.25;1.75;;;;;-143.57;100.00;65101.44;5036356;28;45450;-47
2023/07/01 10:46:12;;;;;;;;;3.60;2.00;;;;;-143.57;100.00;65101.44;5036419;28;45513;-42
2023/07/01 10:48:43;;;;;;;;;1.80;1.80;;;;;-143.57;100.00;65101.44;5036185;28;45279;-43
2023/07/01 10:51:13;;;;;;;;;1.60;1.60;;;;;-143.57;100.00;65101.44;5027322;28;45432;-44
2023/07/01 10:53:58;;;;;;;;;1.80;1.80;;;;;-143.57;100.00;65101.44;5036451;28;45469;-42
2023/07/01 10:56:24;;;;;;;;;2.00;2.00;;;;;-143.57;100.00;65101.44;5036610;28;45881;-41
2023/07/01 10:59:20;;;;;;;;;1.00;1.00;;;;;-143.57;100.00;65101.44;5035987;28;45350;-41
2023/07/01 11:01:48;;;;;;;;;1.00;1.00;;;;;-143.57;100.00;65101.44;4954748;28;45332;-42
2023/07/01 11:04:14;;;;;;;;;2.80;2.80;;;;;-143.57;100.00;65101.44;4954054;28;45475;-42
2023/07/01 11:06:55;;;;;;;;;1.60;1.60;;;;;-143.57;100.00;65101.44;4955114;28;45410;-42
2023/07/01 11:09:31;;;;;;;;;1.40;1.40;;;;;-143.57;100.00;65101.44;4954939;28;46440;-45